Time;durP1;ratioP1;P1;durP2;ratioP2;P2;SDS_P1;SDS_P2;PMS_P1;PMS_P2;Temp;Humidity;BMP_temperature;BMP_pressure;BME280_temperature;BME280_humidity;BME280_pressure;Samples;Min_cycle;Max_cycle;Signal;HPM_P1;HPM_P2
2023/10/19 00:03:45;;;;;;;4.38;1.10;;;;;;;6.71;67.56;100078.16;15674042;28;20055;-49
2023/10/19 00:11:24;;;;;;;0.20;0.20;;;;;;;6.80;67.86;100061.75;15682290;28;20379;-53
2023/10/19 00:19:00;;;;;;;1.67;1.52;;;;;;;7.18;66.05;100057.69;15681352;28;20045;-49
2023/10/19 00:26:34;;;;;;;0.00;0.00;;;;;;;7.30;65.86;100042.72;15678824;28;20048;-50
2023/10/19 00:34:09;;;;;;;0.30;0.22;;;;;;;7.17;65.94;100032.88;15679117;28;20064;-51
2023/10/19 00:41:43;;;;;;;0.08;0.08;;;;;;;7.04;66.17;100012.34;15655384;28;20033;-49
2023/10/19 00:49:23;;;;;;;0.20;0.20;;;;;;;6.80;66.96;100010.25;15676684;28;20041;-51
2023/10/19 00:57:04;;;;;;;0.30;0.15;;;;;;;7.00;66.62;99999.63;15671479;28;20099;-50
2023/10/19 01:04:42;;;;;;;0.20;0.20;;;;;;;6.83;66.92;99981.34;15676330;28;20072;-52
2023/10/19 01:12:33;;;;;;;0.10;0.10;;;;;;;6.67;67.13;99967.56;15678756;28;20173;-48
2023/10/19 01:20:17;;;;;;;0.77;0.77;;;;;;;6.53;67.74;99946.25;15676150;28;20059;-47
2023/10/19 01:27:57;;;;;;;1.35;0.80;;;;;;;6.75;67.06;99938.84;15664738;28;20041;-47
2023/10/19 01:36:10;;;;;;;0.28;0.28;;;;;;;6.70;67.38;99924.50;15670050;28;20045;-47
2023/10/19 01:43:30;;;;;;;0.45;0.45;;;;;;;6.73;66.84;99911.59;15656728;28;20036;-48
2023/10/19 01:51:07;;;;;;;1.45;1.13;;;;;;;6.95;66.67;99896.19;15674528;28;20423;-49
2023/10/19 01:58:42;;;;;;;2.03;0.60;;;;;;;6.64;67.23;99891.50;15657264;28;20131;-50
2023/10/19 02:06:19;;;;;;;0.13;0.13;;;;;;;6.73;67.36;99860.91;15671822;28;20461;-52
2023/10/19 02:13:55;;;;;;;4.95;1.65;;;;;;;6.65;67.21;99880.59;15672732;28;20391;-51
2023/10/19 02:21:32;;;;;;;0.93;0.20;;;;;;;6.65;67.56;99869.94;15673335;28;20135;-48
2023/10/19 02:29:09;;;;;;;0.52;0.52;;;;;;;6.85;66.97;99853.94;15667035;28;20497;-48
2023/10/19 02:36:43;;;;;;;0.55;0.55;;;;;;;7.24;65.69;99841.53;15673509;28;20106;-49
2023/10/19 02:44:22;;;;;;;0.25;0.25;;;;;;;6.90;66.48;99838.13;15672073;28;20482;-49
2023/10/19 02:51:58;;;;;;;0.22;0.22;;;;;;;7.16;65.89;99825.72;15676030;28;20443;-49
2023/10/19 02:59:33;;;;;;;1.95;0.90;;;;;;;7.12;65.93;99814.66;15681041;28;20063;-48
2023/10/19 03:07:07;;;;;;;2.55;1.00;;;;;;;7.18;66.00;99812.16;15684097;28;20569;-49
2023/10/19 03:14:43;;;;;;;0.00;0.00;;;;;;;7.30;65.30;99805.16;15683343;28;20045;-50
2023/10/19 03:22:19;;;;;;;0.40;0.40;;;;;;;7.15;65.85;99787.56;15683040;28;20043;-49
2023/10/19 03:29:55;;;;;;;0.70;0.70;;;;;;;6.82;67.19;99784.19;15676849;28;20484;-49
2023/10/19 03:37:30;;;;;;;2.17;1.95;;;;;;;6.96;66.60;99767.09;15682694;28;20409;-49
2023/10/19 03:45:12;;;;;;;0.15;0.15;;;;;;;6.96;66.47;99760.97;15682380;28;20132;-49
2023/10/19 03:52:46;;;;;;;0.30;0.30;;;;;;;6.87;66.62;99747.03;15674179;28;20040;-50
2023/10/19 04:00:24;;;;;;;2.00;0.80;;;;;;;6.87;67.02;99718.50;15682592;28;20049;-47
2023/10/19 04:07:58;;;;;;;0.00;0.00;;;;;;;6.66;67.56;99718.75;15664165;28;20041;-48
2023/10/19 04:15:33;;;;;;;0.22;0.22;;;;;;;6.76;67.61;99716.50;15681140;28;20061;-47
2023/10/19 04:23:10;;;;;;;0.75;0.75;;;;;;;6.65;68.23;99709.13;15681566;28;20120;-48
2023/10/19 04:30:44;;;;;;;0.40;0.40;;;;;;;6.58;67.87;99685.16;15674590;28;20524;-48
2023/10/19 04:38:18;;;;;;;3.33;2.20;;;;;;;6.97;66.98;99688.69;15637222;22;20144;-48
2023/10/19 04:45:52;;;;;;;;;;;;;;;6.63;67.58;99689.88;15622394;28;20033;-48
2023/10/19 04:53:25;;;;;;;1.65;1.50;;;;;;;7.03;66.55;99679.03;15616493;28;20326;-49
2023/10/19 05:01:00;;;;;;;1.00;0.90;;;;;;;6.94;67.15;99675.78;15610155;28;20055;-54
2023/10/19 05:08:35;;;;;;;0.82;0.80;;;;;;;6.78;67.93;99666.44;15616733;28;20059;-51
2023/10/19 05:16:10;;;;;;;0.88;0.88;;;;;;;7.12;67.87;99667.06;15611646;28;20132;-53
2023/10/19 05:23:47;;;;;;;0.47;0.43;;;;;;;7.01;68.45;99657.91;15592351;28;20109;-53
2023/10/19 05:31:22;;;;;;;0.00;0.00;;;;;;;6.80;69.64;99656.34;15613660;28;20140;-52
2023/10/19 05:38:55;;;;;;;1.10;0.75;;;;;;;6.46;71.99;99662.84;15616217;28;20045;-52
2023/10/19 05:46:31;;;;;;;0.00;0.00;;;;;;;6.77;71.01;99682.66;15615217;28;20041;-52
2023/10/19 05:54:08;;;;;;;0.25;0.25;;;;;;;6.65;71.36;99677.13;15615428;28;20084;-53
2023/10/19 06:01:46;;;;;;;0.40;0.40;;;;;;;6.28;73.44;99650.19;15614988;28;20395;-51
2023/10/19 06:09:20;;;;;;;1.55;1.45;;;;;;;6.38;74.11;99639.06;15614353;28;20537;-52
2023/10/19 06:16:55;;;;;;;0.85;0.85;;;;;;;6.41;73.64;99620.00;15614892;28;20045;-51
2023/10/19 06:24:43;;;;;;;0.73;0.73;;;;;;;6.30;74.28;99612.69;15610417;28;20038;-51
2023/10/19 06:32:18;;;;;;;0.00;0.00;;;;;;;6.04;75.35;99605.56;15609705;28;20073;-52
2023/10/19 06:39:51;;;;;;;0.15;0.15;;;;;;;5.96;75.94;99577.28;15613971;28;20517;-51
2023/10/19 06:47:29;;;;;;;0.52;0.52;;;;;;;6.14;75.33;99580.13;15614352;28;20502;-52
2023/10/19 06:55:02;;;;;;;10.63;1.58;;;;;;;6.09;75.24;99597.75;15613465;28;20045;-52
2023/10/19 07:02:37;;;;;;;1.00;0.93;;;;;;;6.47;74.49;99605.03;15613528;28;20048;-54
2023/10/19 07:10:12;;;;;;;0.28;0.28;;;;;;;6.71;73.89;99593.63;15595845;28;20040;-50
2023/10/19 07:17:47;;;;;;;3.03;2.15;;;;;;;6.52;73.78;99579.34;15604811;28;20041;-49
2023/10/19 07:25:21;;;;;;;1.30;1.20;;;;;;;7.02;72.77;99584.00;15605888;28;20073;-54
2023/10/19 07:32:58;;;;;;;0.77;0.77;;;;;;;7.30;71.52;99611.13;15613215;28;20049;-50
2023/10/19 07:40:33;;;;;;;0.60;0.60;;;;;;;7.32;71.33;99606.41;15600336;28;20045;-52
2023/10/19 07:48:10;;;;;;;2.60;1.20;;;;;;;6.86;73.39;99609.38;15608016;28;20037;-52
2023/10/19 07:55:43;;;;;;;0.13;0.13;;;;;;;6.93;73.43;99607.47;15605615;28;20103;-50
2023/10/19 08:03:21;;;;;;;2.60;1.45;;;;;;;7.22;72.84;99605.22;15622049;28;20445;-52
2023/10/19 08:10:54;;;;;;;0.75;0.75;;;;;;;6.92;73.73;99595.16;15622656;28;20124;-50
2023/10/19 08:18:30;;;;;;;0.90;0.90;;;;;;;6.96;74.19;99560.88;15621874;28;20468;-51
2023/10/19 08:26:05;;;;;;;1.90;1.67;;;;;;;6.72;75.08;99565.13;15614727;28;20437;-51
2023/10/19 08:33:43;;;;;;;0.20;0.20;;;;;;;6.67;76.10;99539.09;15621244;28;20100;-51
2023/10/19 08:41:17;;;;;;;0.20;0.20;;;;;;;7.02;75.01;99554.66;15621371;28;20103;-52
2023/10/19 08:48:53;;;;;;;0.00;0.00;;;;;;;7.20;74.09;99561.94;15612726;28;20483;-52
2023/10/19 08:56:27;;;;;;;0.20;0.20;;;;;;;7.06;74.71;99542.53;15620844;28;20058;-51
2023/10/19 09:04:02;;;;;;;1.63;1.52;;;;;;;7.39;74.27;99526.25;15620386;28;20065;-51
2023/10/19 09:11:37;;;;;;;1.70;1.60;;;;;;;7.25;75.22;99524.72;15619807;28;20049;-51
2023/10/19 09:19:12;;;;;;;;;;;;;;;7.01;76.87;99510.34;15604070;28;20484;-51
2023/10/19 09:26:45;;;;;;;4.78;2.20;;;;;;;7.24;76.91;99504.44;15614991;28;19921;-51
2023/10/19 09:34:21;;;;;;;3.15;1.17;;;;;;;6.97;78.31;99498.47;15600958;28;20153;-50
2023/10/19 09:41:59;;;;;;;0.90;0.85;;;;;;;7.28;78.54;99505.63;15618823;28;20045;-51
2023/10/19 09:49:33;;;;;;;1.15;1.08;;;;;;;7.04;78.68;99515.25;15616190;28;20069;-52
2023/10/19 09:57:16;;;;;;;0.55;0.55;;;;;;;7.02;79.78;99507.47;15598722;28;20041;-53
2023/10/19 10:04:51;;;;;;;0.87;0.87;;;;;;;6.96;79.76;99494.19;15597639;28;20041;-50
2023/10/19 10:12:27;;;;;;;21.70;1.95;;;;;;;6.95;81.37;99496.03;15607823;28;20055;-54
2023/10/19 10:20:34;;;;;;;1.23;1.23;;;;;;;7.15;80.09;99479.84;15615617;28;20037;-48
2023/10/19 10:28:09;;;;;;;0.30;0.30;;;;;;;7.51;79.01;99467.63;15602096;28;20053;-52
2023/10/19 10:35:57;;;;;;;1.25;1.13;;;;;;;7.49;80.54;99461.66;15615248;28;20439;-53
2023/10/19 10:43:30;;;;;;;1.88;1.27;;;;;;;6.85;82.40;99448.53;15606163;28;20046;-51
2023/10/19 10:51:15;;;;;;;1.60;1.13;;;;;;;7.70;80.84;99455.91;15614747;28;20508;-51
2023/10/19 10:58:49;;;;;;;0.10;0.10;;;;;;;7.74;79.76;99449.06;15596461;28;20399;-51
2023/10/19 11:06:24;;;;;;;0.55;0.43;;;;;;;7.64;80.46;99449.56;15615225;28;20496;-51
2023/10/19 11:14:10;;;;;;;0.10;0.10;;;;;;;7.47;81.17;99434.38;15607246;28;20132;-51
2023/10/19 11:21:54;;;;;;;0.75;0.75;;;;;;;7.26;82.39;99428.41;15626425;28;20434;-54
2023/10/19 11:29:28;;;;;;;1.90;1.52;;;;;;;7.09;83.13;99417.53;15620146;28;20029;-53
2023/10/19 11:37:04;;;;;;;6.85;1.52;;;;;;;7.22;84.34;99411.22;15613603;28;20049;-49
2023/10/19 11:44:38;;;;;;;4.32;1.20;;;;;;;7.64;83.18;99404.19;15625397;28;20045;-52
2023/10/19 11:52:13;;;;;;;1.45;1.25;;;;;;;7.60;81.80;99407.50;15608102;28;20049;-54
2023/10/19 11:59:52;;;;;;;0.08;0.08;;;;;;;7.16;83.55;99412.91;15623454;28;20045;-49
2023/10/19 12:07:26;;;;;;;0.30;0.30;;;;;;;7.33;82.92;99410.50;15623090;28;20050;-48
2023/10/19 12:15:00;;;;;;;0.57;0.57;;;;;;;7.22;83.35;99394.38;15622987;28;20384;-49
2023/10/19 12:22:38;;;;;;;2.15;1.95;;;;;;;6.89;83.87;99347.53;15622404;28;20088;-49
2023/10/19 12:30:19;;;;;;;0.95;0.50;;;;;;;7.33;83.49;99385.66;15588788;28;20056;-49
2023/10/19 12:37:55;;;;;;;0.35;0.35;;;;;;;7.16;83.30;99377.41;15612452;28;20586;-50
2023/10/19 12:45:28;;;;;;;1.88;0.88;;;;;;;7.58;82.05;99383.72;15601798;28;20049;-54
2023/10/19 12:53:03;;;;;;;1.55;0.75;;;;;;;7.41;82.77;99366.66;15618645;28;20053;-49
2023/10/19 13:00:40;;;;;;;0.80;0.75;;;;;;;7.29;82.90;99373.81;15617874;28;20056;-49
2023/10/19 13:08:15;;;;;;;0.65;0.65;;;;;;;7.34;82.63;99388.09;15617849;28;20041;-51
2023/10/19 13:15:49;;;;;;;0.30;0.30;;;;;;;7.62;82.91;99386.75;15591899;28;20123;-52
2023/10/19 13:23:25;;;;;;;1.70;1.60;;;;;;;7.80;82.30;99376.06;15600199;28;20510;-49
2023/10/19 13:30:58;;;;;;;0.50;0.50;;;;;;;7.44;83.48;99362.75;15592346;28;20038;-50
2023/10/19 13:38:33;;;;;;;0.20;0.20;;;;;;;7.38;83.60;99369.78;15628137;28;20641;-51
2023/10/19 13:46:06;;;;;;;1.70;0.57;;;;;;;7.43;83.03;99345.91;15616125;28;20041;-52
2023/10/19 13:53:44;;;;;;;0.10;0.10;;;;;;;7.32;83.71;99352.81;15565707;28;20461;-49
2023/10/19 14:01:18;;;;;;;1.85;1.65;;;;;;;7.95;81.72;99358.81;15615666;28;20100;-50
2023/10/19 14:08:56;;;;;;;0.15;0.15;;;;;;;7.76;81.94;99364.19;15607931;28;20505;-49
2023/10/19 14:16:30;;;;;;;1.33;0.80;;;;;;;7.55;82.78;99352.09;15614831;28;20038;-50
2023/10/19 14:24:08;;;;;;;2.40;1.38;;;;;;;7.51;83.22;99345.63;15613786;28;20046;-51
2023/10/19 14:31:42;;;;;;;1.42;1.33;;;;;;;7.18;84.31;99345.16;15612326;28;20046;-52
2023/10/19 14:39:19;;;;;;;0.52;0.52;;;;;;;7.06;84.55;99348.59;15612730;28;20077;-49
2023/10/19 14:46:53;;;;;;;1.10;1.10;;;;;;;7.18;84.21;99350.50;15588399;28;20136;-50
2023/10/19 14:54:28;;;;;;;0.68;0.68;;;;;;;7.20;83.79;99340.44;15626689;28;20065;-49
2023/10/19 15:02:01;;;;;;;0.22;0.22;;;;;;;6.94;85.73;99347.66;15626471;28;20048;-49
2023/10/19 15:09:36;;;;;;;0.30;0.30;;;;;;;7.15;84.21;99339.25;15622176;28;20041;-52
2023/10/19 15:17:11;;;;;;;1.52;1.23;;;;;;;7.12;84.40;99330.88;15599691;28;20096;-52
2023/10/19 15:24:46;;;;;;;2.83;1.85;;;;;;;7.05;85.16;99325.63;15616894;28;20120;-51
2023/10/19 15:32:19;;;;;;;0.52;0.52;;;;;;;7.13;84.18;99330.66;15606468;28;20249;-52
2023/10/19 15:39:54;;;;;;;0.70;0.70;;;;;;;7.00;85.36;99327.31;15591454;28;20123;-49
2023/10/19 15:47:30;;;;;;;0.68;0.68;;;;;;;7.23;84.74;99331.97;15620131;28;20095;-50
2023/10/19 15:55:05;;;;;;;1.55;1.45;;;;;;;7.01;84.84;99343.09;15616839;28;20105;-49
2023/10/19 16:02:38;;;;;;;2.53;1.92;;;;;;;7.09;84.89;99326.00;15614797;28;20099;-51
2023/10/19 16:10:14;;;;;;;0.55;0.55;;;;;;;7.03;85.58;99318.84;15622713;28;20453;-48
2023/10/19 16:17:48;;;;;;;1.45;1.35;;;;;;;6.81;86.02;99318.50;15620964;28;20049;-51
2023/10/19 16:25:22;;;;;;;;;;;;;;;7.13;84.87;99309.31;15622882;28;20050;-48
2023/10/19 16:32:56;;;;;;;2.42;2.22;;;;;;;7.48;83.28;99315.88;15637969;22;20487;-55
2023/10/19 16:40:30;;;;;;;6.15;2.70;;;;;;;7.41;83.33;99331.97;15656266;28;20401;-53
2023/10/19 16:48:07;;;;;;;1.45;1.35;;;;;;;7.35;84.20;99319.50;15675342;28;20045;-53
2023/10/19 16:55:41;;;;;;;1.48;1.38;;;;;;;7.51;83.51;99312.75;15656399;28;20044;-55
2023/10/19 17:03:16;;;;;;;2.22;2.08;;;;;;;7.54;83.76;99304.28;15656497;28;20072;-49
2023/10/19 17:10:54;;;;;;;1.58;1.23;;;;;;;7.41;83.83;99298.09;15672857;28;20047;-52
2023/10/19 17:18:33;;;;;;;5.07;2.85;;;;;;;7.70;83.29;99302.88;15673056;28;20052;-53
2023/10/19 17:26:09;;;;;;;0.57;0.57;;;;;;;7.33;84.93;99293.06;15656191;28;20045;-52
2023/10/19 17:33:44;;;;;;;0.40;0.40;;;;;;;7.24;85.41;99286.41;15652841;28;20448;-53
2023/10/19 17:41:19;;;;;;;0.50;0.50;;;;;;;7.33;86.11;99276.22;15672760;28;20072;-54
2023/10/19 17:48:53;;;;;;;2.13;1.83;;;;;;;7.18;86.68;99263.28;15663749;28;20398;-50
2023/10/19 17:56:28;;;;;;;1.30;1.23;;;;;;;7.01;86.42;99256.91;15670420;28;20044;-52
2023/10/19 18:04:05;;;;;;;2.35;2.03;;;;;;;7.09;87.05;99262.78;15670158;28;20052;-54
2023/10/19 18:11:42;;;;;;;0.75;0.75;;;;;;;7.11;87.09;99255.34;15668928;28;20055;-52
2023/10/19 18:19:15;;;;;;;0.20;0.20;;;;;;;7.60;85.03;99261.50;15631524;28;20110;-52
2023/10/19 18:26:50;;;;;;;0.50;0.50;;;;;;;7.63;84.98;99268.22;15632834;28;20135;-56
2023/10/19 18:34:25;;;;;;;3.55;1.80;;;;;;;7.73;84.65;99273.81;15649348;28;20052;-54
2023/10/19 18:42:02;;;;;;;0.40;0.40;;;;;;;7.40;86.02;99277.75;15666183;28;20074;-54
2023/10/19 18:49:38;;;;;;;1.38;1.20;;;;;;;7.34;86.09;99248.50;15670438;28;20041;-51
2023/10/19 18:57:12;;;;;;;0.60;0.60;;;;;;;7.39;85.56;99254.78;15668936;28;20505;-53
2023/10/19 19:04:45;;;;;;;0.77;0.70;;;;;;;7.40;85.56;99250.25;15668110;28;20056;-51
2023/10/19 19:12:20;;;;;;;3.42;3.13;;;;;;;7.30;86.33;99247.31;15669119;28;20057;-54
2023/10/19 19:19:55;;;;;;;0.20;0.20;;;;;;;7.45;86.00;99249.56;15659388;28;20065;-50
2023/10/19 19:27:30;;;;;;;6.63;2.53;;;;;;;7.45;85.80;99249.56;15667916;28;20037;-53
2023/10/19 19:35:06;;;;;;;1.55;0.75;;;;;;;7.31;86.47;99259.63;15671654;28;20041;-51
2023/10/19 19:42:42;;;;;;;0.45;0.43;;;;;;;7.59;85.58;99251.81;15678169;28;20124;-56
2023/10/19 19:50:16;;;;;;;1.08;1.08;;;;;;;7.52;85.76;99248.47;15679006;28;20461;-49
2023/10/19 19:57:51;;;;;;;9.70;2.92;;;;;;;7.19;86.80;99237.41;15652156;28;20033;-53
2023/10/19 20:05:29;;;;;;;8.35;1.75;;;;;;;7.59;85.86;99235.81;15673270;28;20140;-51
2023/10/19 20:13:05;;;;;;;1.05;0.22;;;;;;;7.60;86.22;99234.78;15632692;28;20045;-47
2023/10/19 20:20:38;;;;;;;9.18;3.95;;;;;;;7.62;85.75;99229.22;15675215;28;20497;-52
2023/10/19 20:28:13;;;;;;;0.63;0.63;;;;;;;7.36;86.12;99217.84;15657249;28;20036;-50
2023/10/19 20:35:52;;;;;;;0.52;0.52;;;;;;;7.48;85.07;99187.72;15675034;28;20052;-53
2023/10/19 20:43:42;;;;;;;0.23;0.23;;;;;;;7.31;86.62;99217.72;15675071;28;20160;-51
2023/10/19 20:51:17;;;;;;;1.58;1.27;;;;;;;7.55;86.13;99213.28;15674616;28;20037;-54
2023/10/19 20:58:51;;;;;;;;;;;;;;;7.40;86.30;99195.00;15657346;28;20044;-50
2023/10/19 21:06:26;;;;;;;0.88;0.75;;;;;;;7.38;85.79;99194.44;15655542;28;19979;-50
2023/10/19 21:14:01;;;;;;;0.65;0.65;;;;;;;7.33;86.82;99180.97;15673773;28;20045;-51
2023/10/19 21:21:35;;;;;;;1.17;0.70;;;;;;;7.19;85.72;99160.03;15646213;28;20072;-53
2023/10/19 21:29:11;;;;;;;2.35;0.75;;;;;;;7.25;85.86;99173.25;15672106;28;20116;-50
2023/10/19 21:36:44;;;;;;;0.05;0.05;;;;;;;7.14;86.24;99168.72;15652940;28;20139;-50
2023/10/19 21:44:21;;;;;;;0.50;0.50;;;;;;;7.29;85.35;99168.28;15671267;28;20414;-52
2023/10/19 21:51:56;;;;;;;0.50;0.50;;;;;;;7.16;86.21;99172.75;15652758;28;20049;-50
2023/10/19 21:59:35;;;;;;;0.00;0.00;;;;;;;7.06;86.15;99172.50;15669847;28;20053;-51
2023/10/19 22:07:10;;;;;;;0.38;0.38;;;;;;;7.45;85.07;99172.97;15669862;28;20496;-53
2023/10/19 22:14:45;;;;;;;0.55;0.55;;;;;;;7.53;84.29;99166.50;15669835;28;20044;-53
2023/10/19 22:22:18;;;;;;;0.10;0.10;;;;;;;7.55;84.85;99173.22;15644349;28;20083;-50
2023/10/19 22:29:53;;;;;;;;;;;;;;;7.02;85.78;99157.16;15663203;28;20124;-52
2023/10/19 22:37:26;;;;;;;0.10;0.10;;;;;;;6.98;86.20;99158.66;15653625;28;19959;-49
2023/10/19 22:45:01;;;;;;;0.65;0.65;;;;;;;7.19;85.75;99136.81;15669649;28;20423;-52
2023/10/19 22:52:38;;;;;;;0.30;0.30;;;;;;;6.97;85.92;99114.34;15649423;28;20048;-53
2023/10/19 23:00:15;;;;;;;;;;;;;;;7.01;86.25;99135.03;15662016;28;20667;-50
2023/10/19 23:07:51;;;;;;;0.40;0.40;;;;;;;7.16;85.60;99121.25;15665818;28;20019;-51
2023/10/19 23:15:36;;;;;;;0.35;0.35;;;;;;;6.89;86.03;99120.81;15673945;28;20049;-51
2023/10/19 23:23:12;;;;;;;0.10;0.10;;;;;;;7.53;83.53;99135.28;15646875;28;20056;-51
2023/10/19 23:30:47;;;;;;;;;;;;;;;6.87;85.56;99134.38;15681050;28;20129;-49
2023/10/19 23:38:20;;;;;;;0.00;0.00;;;;;;;7.43;84.12;99131.53;15645726;28;20392;-51
2023/10/19 23:45:55;;;;;;;0.52;0.52;;;;;;;6.89;86.19;99113.63;15678932;28;20037;-50
2023/10/19 23:53:29;;;;;;;1.10;0.30;;;;;;;7.11;85.68;99099.78;15678983;28;20053;-49
